Sibley, Missouri
Current Conditions -  °F | °C
As of 10:15 PM on Wednesday 22 Oct 2014 (Local Time) from KGPH Reporting Station
Clear Clear  
Wind Chill: 61°   Ceiling: Unl
Heat Index: 61°   Visibility: 10mi
Dew Point: 46°   Wind: 6mph
Humidity: 59%   Direction: 120°ESE
Pressure: 30.12"   Gusts: NA
Location:  39.18°N, 94.19°W
Report Text: KGPH 230315Z AUTO 12005KT 10SM CLR 16/08 A3012 RMK AO2
Loading
Personal Weather Stations






























Interactive Weather Map
Tropical Storm Tracking
New forecast layout! Learn more

10-Day Weather Forecast

Advertisements
Track Severe Weather on mobile